York, Wisconsin
Current Conditions -  °F | °C
As of 2:33 AM on Tuesday 21 Oct 2014 (Local Time) from KMFI Reporting Station
Overcast Overcast  
Wind Chill:   Ceiling: 3100
Heat Index:   Visibility: 10mi
Dew Point:   Wind: 7mph
Humidity: 76%   Direction: 20°NNE
Pressure: 30.09"   Gusts: NA
Location:  44.5388°N, 90.4382°W
Report Text: KMFI 210733Z AUTO 02006KT 10SM OVC031 07/03 A3009 RMK AO2 T00720033
Loading
Personal Weather Stations






























Interactive Weather Map
Tropical Storm Tracking
New forecast layout! Learn more

10-Day Weather Forecast

Advertisements
Track Severe Weather on mobile